sensor_id;sensor_type;location;lat;lon;timestamp;pressure;altitude;pressure_sealevel;temperature
74915;BMP280;63475;45.140;-75.616;2023-04-29T00:00:50;100678.69;;;18.31
74915;BMP280;63475;45.140;-75.616;2023-04-29T00:01:51;100670.53;;;18.25
74915;BMP280;63475;45.140;-75.616;2023-04-29T00:02:51;100674.44;;;18.24
74915;BMP280;63475;45.140;-75.616;2023-04-29T00:03:52;100672.63;;;18.21
74915;BMP280;63475;45.140;-75.616;2023-04-29T00:04:53;100680.38;;;18.19
74915;BMP280;63475;45.140;-75.616;2023-04-29T00:05:54;100671.75;;;18.15
74915;BMP280;63475;45.140;-75.616;2023-04-29T00:06:55;100660.50;;;18.02
74915;BMP280;63475;45.140;-75.616;2023-04-29T00:07:56;100677.28;;;18.11
74915;BMP280;63475;45.140;-75.616;2023-04-29T00:08:57;100668.38;;;18.05
74915;BMP280;63475;45.140;-75.616;2023-04-29T00:09:58;100669.31;;;18.02
74915;BMP280;63475;45.140;-75.616;2023-04-29T00:10:59;100669.00;;;18.00
74915;BMP280;63475;45.140;-75.616;2023-04-29T00:12:00;100669.44;;;17.99
74915;BMP280;63475;45.140;-75.616;2023-04-29T00:13:02;100664.13;;;17.90
74915;BMP280;63475;45.140;-75.616;2023-04-29T00:14:02;100663.66;;;17.91
74915;BMP280;63475;45.140;-75.616;2023-04-29T00:15:04;100675.72;;;17.87
74915;BMP280;63475;45.140;-75.616;2023-04-29T00:16:06;100667.69;;;17.87
74915;BMP280;63475;45.140;-75.616;2023-04-29T00:17:08;100650.03;;;17.71
74915;BMP280;63475;45.140;-75.616;2023-04-29T00:18:09;100664.72;;;17.85
74915;BMP280;63475;45.140;-75.616;2023-04-29T00:19:10;100660.41;;;17.78
74915;BMP280;63475;45.140;-75.616;2023-04-29T00:20:12;100671.88;;;17.79
74915;BMP280;63475;45.140;-75.616;2023-04-29T00:21:13;100667.44;;;17.76
74915;BMP280;63475;45.140;-75.616;2023-04-29T00:22:14;100669.06;;;17.73
74915;BMP280;63475;45.140;-75.616;2023-04-29T00:23:15;100651.09;;;17.64
74915;BMP280;63475;45.140;-75.616;2023-04-29T00:24:16;100667.47;;;17.66
74915;BMP280;63475;45.140;-75.616;2023-04-29T00:25:17;100667.47;;;17.66
74915;BMP280;63475;45.140;-75.616;2023-04-29T00:26:18;100638.16;;;17.45
74915;BMP280;63475;45.140;-75.616;2023-04-29T00:27:19;100666.56;;;17.60
74915;BMP280;63475;45.140;-75.616;2023-04-29T00:28:20;100669.41;;;17.57
74915;BMP280;63475;45.140;-75.616;2023-04-29T00:29:21;100666.88;;;17.53
74915;BMP280;63475;45.140;-75.616;2023-04-29T00:30:23;100661.22;;;17.51
74915;BMP280;63475;45.140;-75.616;2023-04-29T00:31:23;100660.91;;;17.49
74915;BMP280;63475;45.140;-75.616;2023-04-29T00:32:24;100633.44;;;17.31
74915;BMP280;63475;45.140;-75.616;2023-04-29T00:33:25;100662.72;;;17.43
74915;BMP280;63475;45.140;-75.616;2023-04-29T00:34:26;100660.66;;;17.38
74915;BMP280;63475;45.140;-75.616;2023-04-29T00:35:27;100659.91;;;17.38
74915;BMP280;63475;45.140;-75.616;2023-04-29T00:36:28;100660.34;;;17.36
74915;BMP280;63475;45.140;-75.616;2023-04-29T00:37:31;100666.59;;;17.33
74915;BMP280;63475;45.140;-75.616;2023-04-29T00:38:32;100646.38;;;17.23
74915;BMP280;63475;45.140;-75.616;2023-04-29T00:39:33;100659.47;;;17.30
74915;BMP280;63475;45.140;-75.616;2023-04-29T00:40:34;100661.84;;;17.28
74915;BMP280;63475;45.140;-75.616;2023-04-29T00:41:35;100652.31;;;17.18
74915;BMP280;63475;45.140;-75.616;2023-04-29T00:42:37;100656.66;;;17.24
74915;BMP280;63475;45.140;-75.616;2023-04-29T00:43:38;100660.94;;;17.22
74915;BMP280;63475;45.140;-75.616;2023-04-29T00:44:39;100656.47;;;17.19
74915;BMP280;63475;45.140;-75.616;2023-04-29T00:45:40;100660.78;;;17.16
74915;BMP280;63475;45.140;-75.616;2023-04-29T00:46:41;100653.94;;;17.15
74915;BMP280;63475;45.140;-75.616;2023-04-29T00:47:42;100654.84;;;17.12
74915;BMP280;63475;45.140;-75.616;2023-04-29T00:48:43;100653.06;;;17.09
74915;BMP280;63475;45.140;-75.616;2023-04-29T00:49:44;100654.69;;;17.07
74915;BMP280;63475;45.140;-75.616;2023-04-29T00:50:46;100647.53;;;17.04
74915;BMP280;63475;45.140;-75.616;2023-04-29T00:51:47;100650.69;;;17.02
74915;BMP280;63475;45.140;-75.616;2023-04-29T00:52:50;100649.34;;;16.98
74915;BMP280;63475;45.140;-75.616;2023-04-29T00:53:52;100642.19;;;16.95
74915;BMP280;63475;45.140;-75.616;2023-04-29T00:54:53;100647.84;;;16.97
74915;BMP280;63475;45.140;-75.616;2023-04-29T00:55:55;100647.41;;;16.89
74915;BMP280;63475;45.140;-75.616;2023-04-29T00:56:56;100656.47;;;16.92
74915;BMP280;63475;45.140;-75.616;2023-04-29T00:57:59;100650.81;;;16.90
74915;BMP280;63475;45.140;-75.616;2023-04-29T00:59:02;100658.56;;;16.88
74915;BMP280;63475;45.140;-75.616;2023-04-29T01:00:04;100655.88;;;16.88
74915;BMP280;63475;45.140;-75.616;2023-04-29T01:01:06;100663.59;;;16.85
74915;BMP280;63475;45.140;-75.616;2023-04-29T01:02:07;100659.56;;;16.81
74915;BMP280;63475;45.140;-75.616;2023-04-29T01:03:08;100663.41;;;16.80
74915;BMP280;63475;45.140;-75.616;2023-04-29T01:04:09;100667.44;;;16.75
74915;BMP280;63475;45.140;-75.616;2023-04-29T01:05:10;100652.84;;;16.67
74915;BMP280;63475;45.140;-75.616;2023-04-29T01:07:44;100663.88;;;16.69
74915;BMP280;63475;45.140;-75.616;2023-04-29T01:11:32;100665.31;;;16.61
74915;BMP280;63475;45.140;-75.616;2023-04-29T01:12:40;100655.84;;;16.60
74915;BMP280;63475;45.140;-75.616;2023-04-29T01:13:47;100640.63;;;16.48
74915;BMP280;63475;45.140;-75.616;2023-04-29T01:16:44;100658.78;;;16.53
74915;BMP280;63475;45.140;-75.616;2023-04-29T01:19:37;100656.38;;;16.46
74915;BMP280;63475;45.140;-75.616;2023-04-29T01:20:40;100653.81;;;16.42
74915;BMP280;63475;45.140;-75.616;2023-04-29T01:21:47;100656.94;;;16.41
74915;BMP280;63475;45.140;-75.616;2023-04-29T01:22:48;100645.78;;;16.33
74915;BMP280;63475;45.140;-75.616;2023-04-29T01:23:50;100644.91;;;16.36
74915;BMP280;63475;45.140;-75.616;2023-04-29T01:24:55;100647.28;;;16.34
74915;BMP280;63475;45.140;-75.616;2023-04-29T01:25:57;100645.03;;;16.33
74915;BMP280;63475;45.140;-75.616;2023-04-29T01:29:59;100645.31;;;16.26
74915;BMP280;63475;45.140;-75.616;2023-04-29T01:31:10;100640.84;;;16.23
74915;BMP280;63475;45.140;-75.616;2023-04-29T01:32:17;100636.38;;;16.20
74915;BMP280;63475;45.140;-75.616;2023-04-29T01:33:32;100638.75;;;16.18
74915;BMP280;63475;45.140;-75.616;2023-04-29T01:34:46;100635.16;;;16.12
74915;BMP280;63475;45.140;-75.616;2023-04-29T01:36:08;100620.88;;;16.06
74915;BMP280;63475;45.140;-75.616;2023-04-29T01:37:51;100640.50;;;16.12
74915;BMP280;63475;45.140;-75.616;2023-04-29T01:39:06;100637.22;;;16.08
74915;BMP280;63475;45.140;-75.616;2023-04-29T01:40:15;100636.91;;;16.06
74915;BMP280;63475;45.140;-75.616;2023-04-29T01:43:03;100611.28;;;15.86
74915;BMP280;63475;45.140;-75.616;2023-04-29T01:44:14;100629.13;;;15.98
74915;BMP280;63475;45.140;-75.616;2023-04-29T01:45:17;100632.69;;;15.95
74915;BMP280;63475;45.140;-75.616;2023-04-29T01:46:21;100626.75;;;15.91
74915;BMP280;63475;45.140;-75.616;2023-04-29T01:47:22;100628.25;;;15.92
74915;BMP280;63475;45.140;-75.616;2023-04-29T01:48:24;100634.44;;;15.89
74915;BMP280;63475;45.140;-75.616;2023-04-29T01:49:28;100626.56;;;15.86
74915;BMP280;63475;45.140;-75.616;2023-04-29T01:50:29;100603.16;;;15.68
74915;BMP280;63475;45.140;-75.616;2023-04-29T01:51:30;100629.38;;;15.82
74915;BMP280;63475;45.140;-75.616;2023-04-29T01:52:31;100628.28;;;15.80
74915;BMP280;63475;45.140;-75.616;2023-04-29T01:53:32;100629.47;;;15.79
74915;BMP280;63475;45.140;-75.616;2023-04-29T01:54:33;100629.47;;;15.79
74915;BMP280;63475;45.140;-75.616;2023-04-29T01:55:35;100631.09;;;15.76
74915;BMP280;63475;45.140;-75.616;2023-04-29T01:56:36;100638.38;;;15.76
74915;BMP280;63475;45.140;-75.616;2023-04-29T01:57:37;100628.38;;;15.67
74915;BMP280;63475;45.140;-75.616;2023-04-29T01:58:38;100637.31;;;15.73
74915;BMP280;63475;45.140;-75.616;2023-04-29T01:59:39;100634.03;;;15.69
74915;BMP280;63475;45.140;-75.616;2023-04-29T02:00:41;100633.13;;;15.63
74915;BMP280;63475;45.140;-75.616;2023-04-29T02:01:42;100639.50;;;15.66
74915;BMP280;63475;45.140;-75.616;2023-04-29T02:02:43;100635.78;;;15.63
74915;BMP280;63475;45.140;-75.616;2023-04-29T02:03:44;100630.56;;;15.59
74915;BMP280;63475;45.140;-75.616;2023-04-29T02:04:45;100637.94;;;15.55
74915;BMP280;63475;45.140;-75.616;2023-04-29T02:05:46;100639.13;;;15.54
74915;BMP280;63475;45.140;-75.616;2023-04-29T02:06:46;100640.31;;;15.53
74915;BMP280;63475;45.140;-75.616;2023-04-29T02:07:47;100638.09;;;15.52
74915;BMP280;63475;45.140;-75.616;2023-04-29T02:08:48;100639.41;;;15.47
74915;BMP280;63475;45.140;-75.616;2023-04-29T02:09:49;100645.28;;;15.42
74915;BMP280;63475;45.140;-75.616;2023-04-29T02:10:54;100615.00;;;15.24
74915;BMP280;63475;45.140;-75.616;2023-04-29T02:11:56;100645.28;;;15.42
74915;BMP280;63475;45.140;-75.616;2023-04-29T02:12:57;100637.19;;;15.33
74915;BMP280;63475;45.140;-75.616;2023-04-29T02:13:57;100647.75;;;15.37
74915;BMP280;63475;45.140;-75.616;2023-04-29T02:14:58;100643.25;;;15.34
74915;BMP280;63475;45.140;-75.616;2023-04-29T02:16:13;100626.16;;;15.22
74915;BMP280;63475;45.140;-75.616;2023-04-29T02:17:14;100638.06;;;15.30
74915;BMP280;63475;45.140;-75.616;2023-04-29T02:18:15;100644.56;;;15.29
74915;BMP280;63475;45.140;-75.616;2023-04-29T02:19:16;100638.47;;;15.29
74915;BMP280;63475;45.140;-75.616;2023-04-29T02:20:17;100651.53;;;15.27
74915;BMP280;63475;45.140;-75.616;2023-04-29T02:21:18;100631.28;;;15.16
74915;BMP280;63475;45.140;-75.616;2023-04-29T02:22:20;100618.69;;;15.04
74915;BMP280;63475;45.140;-75.616;2023-04-29T02:23:20;100645.25;;;15.21
74915;BMP280;63475;45.140;-75.616;2023-04-29T02:24:21;100643.44;;;15.17
74915;BMP280;63475;45.140;-75.616;2023-04-29T02:25:22;100638.53;;;15.16
74915;BMP280;63475;45.140;-75.616;2023-04-29T02:26:23;100645.47;;;15.13
74915;BMP280;63475;45.140;-75.616;2023-04-29T02:27:24;100646.75;;;15.09
74915;BMP280;63475;45.140;-75.616;2023-04-29T02:28:26;100647.81;;;15.11
74915;BMP280;63475;45.140;-75.616;2023-04-29T02:29:27;100644.50;;;15.07
74915;BMP280;63475;45.140;-75.616;2023-04-29T02:30:29;100636.75;;;15.00
74915;BMP280;63475;45.140;-75.616;2023-04-29T02:31:30;100630.06;;;14.96
74915;BMP280;63475;45.140;-75.616;2023-04-29T02:32:32;100642.84;;;15.01
74915;BMP280;63475;45.140;-75.616;2023-04-29T02:33:32;100641.75;;;14.98
74915;BMP280;63475;45.140;-75.616;2023-04-29T02:34:33;100644.13;;;14.96
74915;BMP280;63475;45.140;-75.616;2023-04-29T02:35:34;100632.75;;;14.83
74915;BMP280;63475;45.140;-75.616;2023-04-29T02:36:35;100647.31;;;14.91
74915;BMP280;63475;45.140;-75.616;2023-04-29T02:37:36;100647.31;;;14.91
74915;BMP280;63475;45.140;-75.616;2023-04-29T02:38:37;100641.69;;;14.89
74915;BMP280;63475;45.140;-75.616;2023-04-29T02:39:38;100645.53;;;14.88
74915;BMP280;63475;45.140;-75.616;2023-04-29T02:40:46;100647.03;;;14.89
74915;BMP280;63475;45.140;-75.616;2023-04-29T02:41:47;100630.19;;;14.80
74915;BMP280;63475;45.140;-75.616;2023-04-29T02:42:48;100636.59;;;14.82
74915;BMP280;63475;45.140;-75.616;2023-04-29T02:43:49;100642.66;;;14.83
74915;BMP280;63475;45.140;-75.616;2023-04-29T02:44:50;100648.13;;;14.79
74915;BMP280;63475;45.140;-75.616;2023-04-29T02:45:51;100626.03;;;14.66
74915;BMP280;63475;45.140;-75.616;2023-04-29T02:46:52;100644.34;;;14.76
74915;BMP280;63475;45.140;-75.616;2023-04-29T02:47:53;100643.72;;;14.72
74915;BMP280;63475;45.140;-75.616;2023-04-29T02:48:53;100639.25;;;14.69
74915;BMP280;63475;45.140;-75.616;2023-04-29T02:49:54;100643.84;;;14.69
74915;BMP280;63475;45.140;-75.616;2023-04-29T02:50:55;100643.53;;;14.67
74915;BMP280;63475;45.140;-75.616;2023-04-29T02:51:56;100646.94;;;14.67
74915;BMP280;63475;45.140;-75.616;2023-04-29T02:52:58;100621.47;;;14.54
74915;BMP280;63475;45.140;-75.616;2023-04-29T02:53:58;100643.19;;;14.65
74915;BMP280;63475;45.140;-75.616;2023-04-29T02:55:00;100641.72;;;14.64
74915;BMP280;63475;45.140;-75.616;2023-04-29T02:56:00;100642.16;;;14.62
74915;BMP280;63475;45.140;-75.616;2023-04-29T02:57:01;100647.91;;;14.61
74915;BMP280;63475;45.140;-75.616;2023-04-29T02:58:02;100635.09;;;14.56
74915;BMP280;63475;45.140;-75.616;2023-04-29T02:59:03;100630.66;;;14.53
74915;BMP280;63475;45.140;-75.616;2023-04-29T03:00:05;100644.94;;;14.59
74915;BMP280;63475;45.140;-75.616;2023-04-29T03:01:06;100632.16;;;14.54
74915;BMP280;63475;45.140;-75.616;2023-04-29T03:02:07;100631.47;;;14.50
74915;BMP280;63475;45.140;-75.616;2023-04-29T03:03:09;100637.47;;;14.54
74915;BMP280;63475;45.140;-75.616;2023-04-29T03:04:10;100637.88;;;14.52
74915;BMP280;63475;45.140;-75.616;2023-04-29T03:05:11;100645.13;;;14.52
74915;BMP280;63475;45.140;-75.616;2023-04-29T03:06:12;100636.59;;;14.44
74915;BMP280;63475;45.140;-75.616;2023-04-29T03:07:13;100642.69;;;14.45
74915;BMP280;63475;45.140;-75.616;2023-04-29T03:08:13;100639.19;;;14.48
74915;BMP280;63475;45.140;-75.616;2023-04-29T03:09:14;100634.44;;;14.39
74915;BMP280;63475;45.140;-75.616;2023-04-29T03:10:15;100636.50;;;14.48
74915;BMP280;63475;45.140;-75.616;2023-04-29T03:11:17;100635.84;;;14.44
74915;BMP280;63475;45.140;-75.616;2023-04-29T03:12:18;100624.31;;;14.34
74915;BMP280;63475;45.140;-75.616;2023-04-29T03:13:19;100638.53;;;14.44
74915;BMP280;63475;45.140;-75.616;2023-04-29T03:14:20;100628.81;;;14.37
74915;BMP280;63475;45.140;-75.616;2023-04-29T03:15:21;100635.19;;;14.39
74915;BMP280;63475;45.140;-75.616;2023-04-29T03:16:22;100640.94;;;14.38
74915;BMP280;63475;45.140;-75.616;2023-04-29T03:17:23;100612.81;;;14.24
74915;BMP280;63475;45.140;-75.616;2023-04-29T03:18:24;100616.13;;;14.28
74915;BMP280;63475;45.140;-75.616;2023-04-29T03:19:25;100635.63;;;14.38
74915;BMP280;63475;45.140;-75.616;2023-04-29T03:20:26;100633.41;;;14.36
74915;BMP280;63475;45.140;-75.616;2023-04-29T03:21:29;100634.97;;;14.34
74915;BMP280;63475;45.140;-75.616;2023-04-29T03:22:29;100636.28;;;14.29
74915;BMP280;63475;45.140;-75.616;2023-04-29T03:23:30;100630.31;;;14.25
74915;BMP280;63475;45.140;-75.616;2023-04-29T03:24:31;100630.53;;;14.31
74915;BMP280;63475;45.140;-75.616;2023-04-29T03:25:32;100638.19;;;14.29
74915;BMP280;63475;45.140;-75.616;2023-04-29T03:26:33;100632.84;;;14.29
74915;BMP280;63475;45.140;-75.616;2023-04-29T03:27:34;100620.94;;;14.21
74915;BMP280;63475;45.140;-75.616;2023-04-29T03:28:35;100630.06;;;14.32
74915;BMP280;63475;45.140;-75.616;2023-04-29T03:29:36;100612.72;;;14.15
74915;BMP280;63475;45.140;-75.616;2023-04-29T03:30:37;100630.19;;;14.29
74915;BMP280;63475;45.140;-75.616;2023-04-29T03:31:38;100639.78;;;14.26
74915;BMP280;63475;45.140;-75.616;2023-04-29T03:32:39;100630.09;;;14.20
74915;BMP280;63475;45.140;-75.616;2023-04-29T03:33:40;100639.47;;;14.24
74915;BMP280;63475;45.140;-75.616;2023-04-29T03:34:41;100636.81;;;14.24
74915;BMP280;63475;45.140;-75.616;2023-04-29T03:35:41;100640.53;;;14.27
74915;BMP280;63475;45.140;-75.616;2023-04-29T03:36:43;100639.06;;;14.26
74915;BMP280;63475;45.140;-75.616;2023-04-29T03:37:44;100615.06;;;14.13
74915;BMP280;63475;45.140;-75.616;2023-04-29T03:38:45;100626.16;;;14.24
74915;BMP280;63475;45.140;-75.616;2023-04-29T03:39:46;100633.81;;;14.22
74915;BMP280;63475;45.140;-75.616;2023-04-29T03:40:47;100638.19;;;14.29
74915;BMP280;63475;45.140;-75.616;2023-04-29T03:41:48;100624.00;;;14.19
74915;BMP280;63475;45.140;-75.616;2023-04-29T03:42:49;100628.19;;;14.20
74915;BMP280;63475;45.140;-75.616;2023-04-29T03:43:50;100639.47;;;14.24
74915;BMP280;63475;45.140;-75.616;2023-04-29T03:44:51;100631.34;;;14.28
74915;BMP280;63475;45.140;-75.616;2023-04-29T03:45:52;100610.16;;;14.12
74915;BMP280;63475;45.140;-75.616;2023-04-29T03:46:53;100642.88;;;14.25
74915;BMP280;63475;45.140;-75.616;2023-04-29T03:47:54;100632.56;;;14.27
74915;BMP280;63475;45.140;-75.616;2023-04-29T03:48:55;100627.94;;;14.27
74915;BMP280;63475;45.140;-75.616;2023-04-29T03:49:57;100635.53;;;14.29
74915;BMP280;63475;45.140;-75.616;2023-04-29T03:50:58;100642.47;;;14.26
74915;BMP280;63475;45.140;-75.616;2023-04-29T03:51:58;100629.56;;;14.25
74915;BMP280;63475;45.140;-75.616;2023-04-29T03:53:00;100632.00;;;14.19
74915;BMP280;63475;45.140;-75.616;2023-04-29T03:54:01;100629.88;;;14.27
74915;BMP280;63475;45.140;-75.616;2023-04-29T03:55:03;100637.56;;;14.25
74915;BMP280;63475;45.140;-75.616;2023-04-29T03:56:04;100607.06;;;14.13
74915;BMP280;63475;45.140;-75.616;2023-04-29T03:57:05;100626.47;;;14.26
74915;BMP280;63475;45.140;-75.616;2023-04-29T03:58:06;100628.81;;;14.24
74915;BMP280;63475;45.140;-75.616;2023-04-29T03:59:07;100611.53;;;14.16
74915;BMP280;63475;45.140;-75.616;2023-04-29T04:00:08;100624.22;;;14.25
74915;BMP280;63475;45.140;-75.616;2023-04-29T04:01:09;100620.19;;;14.20
74915;BMP280;63475;45.140;-75.616;2023-04-29T04:02:11;100625.72;;;14.26
74915;BMP280;63475;45.140;-75.616;2023-04-29T04:03:12;100619.75;;;14.22
74915;BMP280;63475;45.140;-75.616;2023-04-29T04:04:13;100623.47;;;14.24
74915;BMP280;63475;45.140;-75.616;2023-04-29T04:05:15;100626.16;;;14.24
74915;BMP280;63475;45.140;-75.616;2023-04-29T04:06:16;100623.16;;;14.22
74915;BMP280;63475;45.140;-75.616;2023-04-29T04:07:16;100621.97;;;14.23
74915;BMP280;63475;45.140;-75.616;2023-04-29T04:08:17;100624.97;;;14.25
74915;BMP280;63475;45.140;-75.616;2023-04-29T04:09:18;100613.91;;;14.14
74915;BMP280;63475;45.140;-75.616;2023-04-29T04:10:19;100624.56;;;14.27
74915;BMP280;63475;45.140;-75.616;2023-04-29T04:11:20;100624.97;;;14.25
74915;BMP280;63475;45.140;-75.616;2023-04-29T04:12:21;100625.41;;;14.24
74915;BMP280;63475;45.140;-75.616;2023-04-29T04:13:22;100608.16;;;14.16
74915;BMP280;63475;45.140;-75.616;2023-04-29T04:14:23;100628.06;;;14.24
74915;BMP280;63475;45.140;-75.616;2023-04-29T04:15:24;100615.69;;;14.17
74915;BMP280;63475;45.140;-75.616;2023-04-29T04:16:25;100633.81;;;14.22
74915;BMP280;63475;45.140;-75.616;2023-04-29T04:17:26;100630.41;;;14.22
74915;BMP280;63475;45.140;-75.616;2023-04-29T04:18:27;100619.63;;;14.13
74915;BMP280;63475;45.140;-75.616;2023-04-29T04:19:29;100613.56;;;14.12
74915;BMP280;63475;45.140;-75.616;2023-04-29T04:20:30;100633.06;;;14.22
74915;BMP280;63475;45.140;-75.616;2023-04-29T04:21:31;100637.22;;;14.23
74915;BMP280;63475;45.140;-75.616;2023-04-29T04:22:32;100630.84;;;14.20
74915;BMP280;63475;45.140;-75.616;2023-04-29T04:23:33;100626.03;;;14.15
74915;BMP280;63475;45.140;-75.616;2023-04-29T04:24:34;100615.47;;;14.12
74915;BMP280;63475;45.140;-75.616;2023-04-29T04:25:35;100630.09;;;14.20
74915;BMP280;63475;45.140;-75.616;2023-04-29T04:26:36;100633.50;;;14.20
74915;BMP280;63475;45.140;-75.616;2023-04-29T04:27:37;100626.97;;;14.21
74915;BMP280;63475;45.140;-75.616;2023-04-29T04:28:38;100633.50;;;14.20
74915;BMP280;63475;45.140;-75.616;2023-04-29T04:29:39;100627.84;;;14.18
74915;BMP280;63475;45.140;-75.616;2023-04-29T04:30:40;100633.94;;;14.19
74915;BMP280;63475;45.140;-75.616;2023-04-29T04:31:42;100617.09;;;14.09
74915;BMP280;63475;45.140;-75.616;2023-04-29T04:32:43;100631.69;;;14.17
74915;BMP280;63475;45.140;-75.616;2023-04-29T04:33:44;100624.97;;;14.13
74915;BMP280;63475;45.140;-75.616;2023-04-29T04:34:45;100633.50;;;14.20
74915;BMP280;63475;45.140;-75.616;2023-04-29T04:35:47;100630.84;;;14.20
74915;BMP280;63475;45.140;-75.616;2023-04-29T04:36:48;100627.84;;;14.18
74915;BMP280;63475;45.140;-75.616;2023-04-29T04:37:49;100629.34;;;14.19
74915;BMP280;63475;45.140;-75.616;2023-04-29T04:38:50;100633.06;;;14.22
74915;BMP280;63475;45.140;-75.616;2023-04-29T04:39:51;100630.50;;;14.18
74915;BMP280;63475;45.140;-75.616;2023-04-29T04:40:52;100624.44;;;14.18
74915;BMP280;63475;45.140;-75.616;2023-04-29T04:41:53;100633.19;;;14.18
74915;BMP280;63475;45.140;-75.616;2023-04-29T04:42:54;100624.84;;;14.16
74915;BMP280;63475;45.140;-75.616;2023-04-29T04:43:55;100622.31;;;14.13
74915;BMP280;63475;45.140;-75.616;2023-04-29T04:44:56;100627.22;;;14.14
74915;BMP280;63475;45.140;-75.616;2023-04-29T04:45:57;100626.88;;;14.12
74915;BMP280;63475;45.140;-75.616;2023-04-29T04:46:58;100631.47;;;14.12
74915;BMP280;63475;45.140;-75.616;2023-04-29T04:48:02;100620.91;;;14.08
74915;BMP280;63475;45.140;-75.616;2023-04-29T04:49:03;100625.09;;;14.09
74915;BMP280;63475;45.140;-75.616;2023-04-29T04:50:05;100632.72;;;14.07
74915;BMP280;63475;45.140;-75.616;2023-04-29T04:51:07;100630.81;;;14.08
74915;BMP280;63475;45.140;-75.616;2023-04-29T04:52:09;100627.38;;;14.07
74915;BMP280;63475;45.140;-75.616;2023-04-29T04:53:11;100622.59;;;14.02
74915;BMP280;63475;45.140;-75.616;2023-04-29T04:54:12;100623.66;;;14.05
74915;BMP280;63475;45.140;-75.616;2023-04-29T04:55:13;100628.25;;;14.04
74915;BMP280;63475;45.140;-75.616;2023-04-29T04:56:14;100611.81;;;13.93
74915;BMP280;63475;45.140;-75.616;2023-04-29T04:57:15;100621.63;;;13.96
74915;BMP280;63475;45.140;-75.616;2023-04-29T04:58:16;100632.06;;;14.03
74915;BMP280;63475;45.140;-75.616;2023-04-29T04:59:17;100630.06;;;14.07
74915;BMP280;63475;45.140;-75.616;2023-04-29T05:00:20;100633.13;;;14.06
74915;BMP280;63475;45.140;-75.616;2023-04-29T05:01:21;100596.06;;;13.86
74915;BMP280;63475;45.140;-75.616;2023-04-29T05:02:22;100621.09;;;14.01
74915;BMP280;63475;45.140;-75.616;2023-04-29T05:03:23;100623.66;;;14.05
74915;BMP280;63475;45.140;-75.616;2023-04-29T05:04:24;100633.88;;;14.06
74915;BMP280;63475;45.140;-75.616;2023-04-29T05:05:25;100622.25;;;14.00
74915;BMP280;63475;45.140;-75.616;2023-04-29T05:06:25;100617.03;;;13.96
74915;BMP280;63475;45.140;-75.616;2023-04-29T05:07:26;100635.50;;;14.04
74915;BMP280;63475;45.140;-75.616;2023-04-29T05:08:27;100612.78;;;13.99
74915;BMP280;63475;45.140;-75.616;2023-04-29T05:09:28;100623.66;;;14.05
74915;BMP280;63475;45.140;-75.616;2023-04-29T05:10:29;100619.28;;;13.98
74915;BMP280;63475;45.140;-75.616;2023-04-29T05:11:30;100612.56;;;13.93
74915;BMP280;63475;45.140;-75.616;2023-04-29T05:12:31;100628.34;;;14.01
74915;BMP280;63475;45.140;-75.616;2023-04-29T05:13:32;100625.66;;;14.01
74915;BMP280;63475;45.140;-75.616;2023-04-29T05:14:33;100621.97;;;13.98
74915;BMP280;63475;45.140;-75.616;2023-04-29T05:15:34;100624.50;;;14.02
74915;BMP280;63475;45.140;-75.616;2023-04-29T05:16:35;100627.16;;;14.02
74915;BMP280;63475;45.140;-75.616;2023-04-29T05:17:36;100615.47;;;13.99
74915;BMP280;63475;45.140;-75.616;2023-04-29T05:18:37;100611.50;;;13.91
74915;BMP280;63475;45.140;-75.616;2023-04-29T05:19:38;100620.34;;;14.01
74915;BMP280;63475;45.140;-75.616;2023-04-29T05:20:39;100624.91;;;14.00
74915;BMP280;63475;45.140;-75.616;2023-04-29T05:21:40;100619.59;;;14.00
74915;BMP280;63475;45.140;-75.616;2023-04-29T05:22:41;100622.69;;;13.98
74915;BMP280;63475;45.140;-75.616;2023-04-29T05:23:42;100618.84;;;13.99
74915;BMP280;63475;45.140;-75.616;2023-04-29T05:24:43;100628.34;;;14.01
74915;BMP280;63475;45.140;-75.616;2023-04-29T05:25:44;100612.47;;;13.97
74915;BMP280;63475;45.140;-75.616;2023-04-29T05:26:45;100615.88;;;13.97
74915;BMP280;63475;45.140;-75.616;2023-04-29T05:27:46;100618.53;;;13.97
74915;BMP280;63475;45.140;-75.616;2023-04-29T05:28:47;100620.88;;;13.95
74915;BMP280;63475;45.140;-75.616;2023-04-29T05:29:48;100618.97;;;13.96
74915;BMP280;63475;45.140;-75.616;2023-04-29T05:30:52;100618.97;;;13.96
74915;BMP280;63475;45.140;-75.616;2023-04-29T05:31:53;100614.50;;;13.93
74915;BMP280;63475;45.140;-75.616;2023-04-29T05:32:54;100598.50;;;13.80
74915;BMP280;63475;45.140;-75.616;2023-04-29T05:33:55;100619.38;;;13.94
74915;BMP280;63475;45.140;-75.616;2023-04-29T05:34:56;100625.16;;;13.93
74915;BMP280;63475;45.140;-75.616;2023-04-29T05:35:57;100625.91;;;13.93
74915;BMP280;63475;45.140;-75.616;2023-04-29T05:36:58;100620.97;;;13.92
74915;BMP280;63475;45.140;-75.616;2023-04-29T05:37:59;100624.41;;;13.92
74915;BMP280;63475;45.140;-75.616;2023-04-29T05:39:00;100625.56;;;13.91
74915;BMP280;63475;45.140;-75.616;2023-04-29T05:40:01;100626.72;;;13.90
74915;BMP280;63475;45.140;-75.616;2023-04-29T05:41:01;100618.00;;;13.90
74915;BMP280;63475;45.140;-75.616;2023-04-29T05:42:03;100616.19;;;13.87
74915;BMP280;63475;45.140;-75.616;2023-04-29T05:43:04;100616.94;;;13.87
74915;BMP280;63475;45.140;-75.616;2023-04-29T05:44:05;100622.56;;;13.89
74915;BMP280;63475;45.140;-75.616;2023-04-29T05:45:06;100621.50;;;13.87
74915;BMP280;63475;45.140;-75.616;2023-04-29T05:46:07;100623.00;;;13.88
74915;BMP280;63475;45.140;-75.616;2023-04-29T05:47:09;100612.78;;;13.86
74915;BMP280;63475;45.140;-75.616;2023-04-29T05:48:10;100596.00;;;13.73
74915;BMP280;63475;45.140;-75.616;2023-04-29T05:49:11;100620.00;;;13.86
74915;BMP280;63475;45.140;-75.616;2023-04-29T05:50:12;100617.34;;;13.86
74915;BMP280;63475;45.140;-75.616;2023-04-29T05:51:12;100609.03;;;13.84
74915;BMP280;63475;45.140;-75.616;2023-04-29T05:52:14;100607.66;;;13.79
74915;BMP280;63475;45.140;-75.616;2023-04-29T05:53:14;100579.50;;;13.66